createdAt,value
2022-08-12T00:02:44.786Z,1.90
2022-08-12T00:05:29.859Z,2.03
2022-08-12T00:08:16.126Z,1.80
2022-08-12T00:11:09.689Z,1.90
2022-08-12T00:13:57.765Z,1.80
2022-08-12T00:16:46.120Z,1.75
2022-08-12T00:19:31.563Z,1.67
2022-08-12T00:22:17.777Z,1.83
2022-08-12T00:25:03.017Z,2.10
2022-08-12T00:27:49.522Z,2.17
2022-08-12T00:30:35.104Z,2.03
2022-08-12T00:33:22.044Z,1.83
2022-08-12T00:36:18.692Z,1.77
2022-08-12T00:39:17.134Z,1.92
2022-08-12T00:42:02.453Z,1.50
2022-08-12T00:44:29.208Z,1.80
2022-08-12T00:47:00.317Z,1.60
2022-08-12T00:49:28.446Z,2.03
2022-08-12T00:52:11.947Z,1.50
2022-08-12T00:54:50.441Z,1.40
2022-08-12T00:57:24.072Z,1.30
2022-08-12T00:59:53.500Z,1.80
2022-08-12T01:02:34.185Z,1.48
2022-08-12T01:05:21.721Z,1.23
2022-08-12T01:08:07.367Z,1.40
2022-08-12T01:10:56.726Z,1.60
2022-08-12T01:13:23.605Z,1.65
2022-08-12T01:15:52.472Z,1.52
2022-08-12T01:18:23.759Z,1.30
2022-08-12T01:20:53.381Z,1.50
2022-08-12T01:23:42.109Z,1.27
2022-08-12T01:26:10.651Z,1.52
2022-08-12T01:28:37.491Z,1.50
2022-08-12T01:31:05.609Z,1.42
2022-08-12T01:33:52.087Z,1.40
2022-08-12T01:36:19.244Z,1.67
2022-08-12T01:38:48.094Z,1.50
2022-08-12T01:41:16.547Z,1.48
2022-08-12T01:43:43.723Z,1.35
2022-08-12T01:46:35.856Z,1.65
2022-08-12T01:49:07.517Z,1.25
2022-08-12T01:52:21.474Z,1.30
2022-08-12T01:54:32.104Z,1.52
2022-08-12T01:57:58.227Z,1.52
2022-08-12T02:00:07.538Z,1.67
2022-08-12T02:02:49.061Z,1.50
2022-08-12T02:05:59.787Z,1.40
2022-08-12T02:09:06.481Z,1.40
2022-08-12T02:11:34.863Z,1.75
2022-08-12T02:14:24.450Z,1.67
2022-08-12T02:17:05.251Z,1.40
2022-08-12T02:19:34.839Z,1.50
2022-08-12T02:22:30.665Z,1.45
2022-08-12T02:25:18.061Z,1.50
2022-08-12T02:27:49.479Z,1.48
2022-08-12T02:30:21.528Z,1.70
2022-08-12T02:32:49.383Z,1.77
2022-08-12T02:35:19.678Z,1.20
2022-08-12T02:37:47.803Z,1.20
2022-08-12T02:40:15.278Z,1.40
2022-08-12T02:42:54.450Z,1.35
2022-08-12T02:45:38.119Z,1.35
2022-08-12T02:48:09.308Z,1.30
2022-08-12T02:50:40.333Z,1.27
2022-08-12T02:53:07.495Z,1.65
2022-08-12T02:55:36.206Z,1.30
2022-08-12T02:58:11.962Z,1.33
2022-08-12T03:00:39.663Z,1.20
2022-08-12T03:03:09.224Z,1.50
2022-08-12T03:05:45.574Z,1.50
2022-08-12T03:08:31.400Z,1.30
2022-08-12T03:11:14.233Z,1.30
2022-08-12T03:13:42.937Z,1.50
2022-08-12T03:16:09.779Z,1.55
2022-08-12T03:18:36.564Z,1.90
2022-08-12T03:21:03.467Z,1.95
2022-08-12T03:23:31.484Z,1.75
2022-08-12T03:26:01.813Z,1.80
2022-08-12T03:28:49.369Z,1.60
2022-08-12T03:31:28.808Z,1.60
2022-08-12T03:34:03.073Z,1.45
2022-08-12T03:36:34.964Z,3.03
2022-08-12T03:39:35.810Z,1.30
2022-08-12T03:42:09.308Z,1.52
2022-08-12T03:44:57.961Z,1.63
2022-08-12T03:48:10.245Z,1.55
2022-08-12T03:50:58.562Z,1.70
2022-08-12T03:53:46.171Z,1.50
2022-08-12T03:56:31.998Z,1.90
2022-08-12T03:59:18.568Z,1.60
2022-08-12T04:01:52.509Z,1.92
2022-08-12T04:04:22.633Z,1.75
2022-08-12T04:06:49.538Z,1.80
2022-08-12T04:09:16.987Z,1.58
2022-08-12T04:12:02.857Z,1.63
2022-08-12T04:14:29.661Z,1.90
2022-08-12T04:16:57.097Z,1.88
2022-08-12T04:19:25.208Z,1.75
2022-08-12T04:22:02.285Z,1.90
2022-08-12T04:24:36.555Z,1.90
2022-08-12T04:27:05.715Z,1.90
2022-08-12T04:30:30.523Z,2.10
2022-08-12T04:32:19.331Z,1.88
2022-08-12T04:34:46.149Z,1.45
2022-08-12T04:37:13.173Z,1.50
2022-08-12T04:39:40.015Z,2.08
2022-08-12T04:42:06.939Z,2.10
2022-08-12T04:44:34.609Z,1.60
2022-08-12T04:47:01.533Z,1.98
2022-08-12T04:49:28.321Z,2.00
2022-08-12T04:51:59.388Z,1.50
2022-08-12T04:54:27.223Z,2.10
2022-08-12T04:57:04.422Z,1.60
2022-08-12T04:59:48.132Z,1.40
2022-08-12T05:02:21.288Z,1.73
2022-08-12T05:04:52.759Z,1.60
2022-08-12T05:07:20.601Z,1.52
2022-08-12T05:10:00.962Z,1.42
2022-08-12T05:12:56.557Z,1.50
2022-08-12T05:15:29.485Z,1.60
2022-08-12T05:18:00.258Z,1.27
2022-08-12T05:20:44.061Z,1.42
2022-08-12T05:23:13.739Z,1.30
2022-08-12T05:25:45.515Z,1.70
2022-08-12T05:28:13.181Z,1.50
2022-08-12T05:30:41.400Z,1.75
2022-08-12T05:33:08.661Z,1.60
2022-08-12T05:35:36.985Z,1.40
2022-08-12T05:38:22.711Z,1.77
2022-08-12T05:40:50.297Z,1.48
2022-08-12T05:43:17.240Z,1.50
2022-08-12T05:45:45.054Z,1.60
2022-08-12T05:48:12.232Z,1.70
2022-08-12T05:50:39.184Z,1.25
2022-08-12T05:53:07.021Z,1.40
2022-08-12T05:55:34.736Z,1.58
2022-08-12T05:58:04.885Z,1.50
2022-08-12T06:00:32.071Z,1.65
2022-08-12T06:03:02.059Z,1.33
2022-08-12T06:05:30.015Z,1.60
2022-08-12T06:08:01.406Z,1.38
2022-08-12T06:10:32.681Z,2.20
2022-08-12T06:13:05.872Z,1.45
2022-08-12T06:15:33.273Z,1.60
2022-08-12T06:18:13.582Z,1.27
2022-08-12T06:20:43.399Z,1.40
2022-08-12T06:23:11.794Z,1.45
2022-08-12T06:25:38.857Z,1.70
2022-08-12T06:28:21.285Z,1.48
2022-08-12T06:31:08.277Z,1.70
2022-08-12T06:33:56.123Z,1.50
2022-08-12T06:36:23.310Z,1.52
2022-08-12T06:38:50.988Z,1.50
2022-08-12T06:41:36.652Z,1.40
2022-08-12T06:44:06.364Z,1.70
2022-08-12T06:46:36.970Z,1.58
2022-08-12T06:49:03.993Z,1.80
2022-08-12T06:51:32.201Z,1.77
2022-08-12T06:53:59.815Z,1.48
2022-08-12T06:56:46.039Z,2.05
2022-08-12T06:59:14.783Z,1.70
2022-08-12T07:01:41.618Z,1.48
2022-08-12T07:04:36.863Z,1.85
2022-08-12T07:07:07.247Z,1.77
2022-08-12T07:10:04.003Z,1.80
2022-08-12T07:12:22.189Z,1.88
2022-08-12T07:14:52.735Z,1.55
2022-08-12T07:17:19.544Z,1.20
2022-08-12T07:19:48.773Z,1.88
2022-08-12T07:22:16.234Z,1.48
2022-08-12T07:24:43.170Z,1.20
2022-08-12T07:27:09.988Z,1.40
2022-08-12T07:29:58.161Z,1.38
2022-08-12T07:32:25.493Z,1.80
2022-08-12T07:34:56.356Z,1.35
2022-08-12T07:37:23.594Z,1.52
2022-08-12T07:39:53.626Z,1.27
2022-08-12T07:42:27.074Z,1.42
2022-08-12T07:44:53.859Z,1.40
2022-08-12T07:47:20.682Z,1.10
2022-08-12T07:50:04.480Z,1.17
2022-08-12T07:52:37.192Z,1.52
2022-08-12T07:55:04.285Z,1.20
2022-08-12T07:57:34.170Z,1.88
2022-08-12T08:00:06.176Z,1.30
2022-08-12T08:02:33.794Z,1.77
2022-08-12T08:05:00.792Z,1.30
2022-08-12T08:07:30.383Z,1.38
2022-08-12T08:09:59.234Z,1.30
2022-08-12T08:12:47.657Z,1.67
2022-08-12T08:15:15.633Z,1.55
2022-08-12T08:18:01.739Z,1.70
2022-08-12T08:20:33.883Z,1.35
2022-08-12T08:23:05.608Z,1.85
2022-08-12T08:25:36.354Z,2.40
2022-08-12T08:28:12.022Z,1.77
2022-08-12T08:30:42.408Z,1.85
2022-08-12T08:33:22.790Z,1.80
2022-08-12T08:35:56.921Z,2.47
2022-08-12T08:38:33.371Z,1.80
2022-08-12T08:42:15.460Z,1.75
2022-08-12T08:44:11.283Z,1.95
2022-08-12T08:46:39.653Z,1.70
2022-08-12T08:49:06.640Z,1.58
2022-08-12T08:51:33.562Z,1.70
2022-08-12T08:54:00.311Z,1.50
2022-08-12T08:56:29.183Z,1.60
2022-08-12T08:58:57.583Z,1.33
2022-08-12T09:01:24.799Z,1.40
2022-08-12T09:05:07.917Z,1.50
2022-08-12T09:06:41.994Z,1.73
2022-08-12T09:09:20.381Z,1.67
2022-08-12T09:12:11.038Z,1.70
2022-08-12T09:14:42.127Z,1.50
2022-08-12T09:17:14.000Z,1.40
2022-08-12T09:19:53.654Z,1.45
2022-08-12T09:25:11.056Z,1.60
2022-08-12T09:28:03.625Z,1.40
2022-08-12T09:30:42.385Z,1.50
2022-08-12T09:33:15.174Z,1.50
2022-08-12T09:35:46.140Z,1.35
2022-08-12T09:38:27.791Z,1.52
2022-08-12T09:42:08.371Z,1.70
2022-08-12T09:44:05.226Z,1.60
2022-08-12T09:46:34.324Z,1.65
2022-08-12T09:49:04.225Z,2.30
2022-08-12T09:51:44.470Z,2.22
2022-08-12T09:54:32.957Z,2.10
2022-08-12T09:58:07.072Z,2.13
2022-08-12T10:00:16.221Z,2.67
2022-08-12T10:02:43.278Z,1.77
2022-08-12T10:05:22.707Z,1.58
2022-08-12T10:08:10.655Z,1.98
2022-08-12T10:10:58.660Z,1.60
2022-08-12T10:13:43.496Z,2.25
2022-08-12T10:16:22.649Z,1.80
2022-08-12T10:18:53.983Z,2.30
2022-08-12T10:21:36.095Z,1.90
2022-08-12T10:24:09.196Z,1.70
2022-08-12T10:26:56.526Z,1.52
2022-08-12T10:30:03.580Z,1.75
2022-08-12T10:32:45.134Z,1.70
2022-08-12T10:35:10.662Z,1.50
2022-08-12T10:38:37.522Z,1.58
2022-08-12T10:40:31.453Z,2.00
2022-08-12T10:43:18.271Z,1.88
2022-08-12T10:45:49.077Z,1.80
2022-08-12T10:48:21.469Z,1.40
2022-08-12T10:51:01.740Z,1.50
2022-08-12T10:53:44.509Z,1.50
2022-08-12T10:56:16.612Z,1.58
2022-08-12T10:58:45.871Z,1.50
2022-08-12T11:01:50.086Z,1.40
2022-08-12T11:04:26.473Z,1.42
2022-08-12T11:07:05.821Z,1.55
2022-08-12T11:10:00.034Z,1.40
2022-08-12T11:12:55.450Z,1.38
2022-08-12T11:15:24.163Z,1.50
2022-08-12T11:17:52.394Z,1.23
2022-08-12T11:20:19.843Z,1.50
2022-08-12T11:22:58.864Z,1.45
2022-08-12T11:25:56.554Z,1.30
2022-08-12T11:28:13.692Z,1.63
2022-08-12T11:30:41.173Z,1.50
2022-08-12T11:33:12.366Z,1.50
2022-08-12T11:35:53.113Z,1.40
2022-08-12T11:38:23.074Z,3.28
2022-08-12T11:40:50.209Z,2.38
2022-08-12T11:43:20.126Z,1.70
2022-08-12T11:45:52.871Z,1.38
2022-08-12T11:48:20.195Z,1.50
2022-08-12T11:50:54.383Z,1.42
2022-08-12T11:53:58.256Z,1.08
2022-08-12T11:56:08.182Z,1.27
2022-08-12T12:00:23.961Z,1.10
2022-08-12T12:02:02.998Z,1.92
2022-08-12T12:04:11.747Z,1.48
2022-08-12T12:06:38.557Z,1.90
2022-08-12T12:09:08.145Z,1.70
2022-08-12T12:11:48.673Z,1.45
2022-08-12T12:14:16.387Z,2.30
2022-08-12T12:16:48.180Z,2.28
2022-08-12T12:19:17.779Z,1.38
2022-08-12T12:21:47.123Z,1.60
2022-08-12T12:24:21.345Z,1.60
2022-08-12T12:27:00.818Z,1.55
2022-08-12T12:30:19.805Z,2.22
2022-08-12T12:32:18.456Z,1.20
2022-08-12T12:35:14.098Z,1.30
2022-08-12T12:38:05.517Z,1.10
2022-08-12T12:40:19.364Z,1.30
2022-08-12T12:42:56.787Z,1.10
2022-08-12T12:45:26.038Z,0.98
2022-08-12T12:48:03.953Z,1.40
2022-08-12T12:50:45.507Z,1.33
2022-08-12T12:54:05.339Z,2.22
2022-08-12T12:56:13.103Z,1.25
2022-08-12T12:58:40.218Z,1.35
2022-08-12T13:01:24.545Z,1.30
2022-08-12T13:03:56.422Z,1.20
2022-08-12T13:06:30.195Z,1.40
2022-08-12T13:09:03.274Z,1.40
2022-08-12T13:11:32.771Z,1.17
2022-08-12T13:14:12.916Z,1.20
2022-08-12T13:16:55.266Z,1.25
2022-08-12T13:19:36.471Z,1.60
2022-08-12T13:22:20.493Z,1.17
2022-08-12T13:24:56.147Z,1.38
2022-08-12T13:27:34.911Z,1.27
2022-08-12T13:30:11.493Z,1.25
2022-08-12T13:32:43.478Z,1.20
2022-08-12T13:35:33.684Z,1.52
2022-08-12T13:38:13.996Z,1.05
2022-08-12T13:40:40.844Z,1.30
2022-08-12T13:43:07.649Z,1.42
2022-08-12T13:45:34.995Z,1.48
2022-08-12T13:48:06.284Z,1.52
2022-08-12T13:50:40.852Z,1.38
2022-08-12T13:53:23.878Z,1.30
2022-08-12T13:55:59.419Z,1.98
2022-08-12T13:58:30.177Z,1.27
2022-08-12T14:00:58.074Z,1.27
2022-08-12T14:03:28.263Z,1.20
2022-08-12T14:05:59.256Z,1.45
2022-08-12T14:08:34.518Z,1.27
2022-08-12T14:11:02.181Z,1.30
2022-08-12T14:14:06.169Z,1.30
2022-08-12T14:16:48.456Z,1.25
2022-08-12T14:19:22.034Z,1.27
2022-08-12T14:21:59.712Z,0.98
2022-08-12T14:24:30.882Z,1.40
2022-08-12T14:27:01.823Z,1.30
2022-08-12T14:29:38.310Z,1.00
2022-08-12T14:32:17.768Z,1.27
2022-08-12T14:34:46.896Z,1.48
2022-08-12T14:37:56.407Z,1.20
2022-08-12T14:40:01.247Z,1.30
2022-08-12T14:42:28.486Z,1.35
2022-08-12T14:45:01.623Z,1.13
2022-08-12T14:47:35.365Z,1.20
2022-08-12T14:50:58.237Z,1.10
2022-08-12T14:58:28.523Z,1.33
2022-08-12T15:01:17.307Z,1.60
2022-08-12T15:03:56.763Z,1.35
2022-08-12T15:06:39.232Z,1.30
2022-08-12T15:09:13.533Z,1.40
2022-08-12T15:11:48.834Z,2.38
2022-08-12T15:14:27.512Z,1.60
2022-08-12T15:16:57.148Z,1.40
2022-08-12T15:20:14.309Z,1.30
2022-08-12T15:22:38.296Z,1.77
2022-08-12T15:25:07.508Z,1.50
2022-08-12T15:28:03.651Z,1.75
2022-08-12T15:30:30.485Z,1.27
2022-08-12T15:32:57.356Z,1.23
2022-08-12T15:35:27.428Z,1.75
2022-08-12T15:38:10.390Z,1.20
2022-08-12T15:40:46.925Z,1.40
2022-08-12T15:43:50.893Z,1.10
2022-08-12T15:46:02.743Z,1.33
2022-08-12T15:48:32.739Z,1.17
2022-08-12T15:51:00.229Z,1.17
2022-08-12T15:53:45.824Z,1.45
2022-08-12T15:56:22.197Z,1.45
2022-08-12T15:58:59.106Z,1.70
2022-08-12T16:01:35.625Z,1.65
2022-08-12T16:04:05.277Z,1.40
2022-08-12T16:09:22.330Z,1.45
2022-08-12T16:12:11.288Z,1.50
2022-08-12T16:14:39.080Z,1.50
2022-08-12T16:17:08.795Z,1.38
2022-08-12T16:20:03.978Z,1.52
2022-08-12T16:22:24.500Z,1.40
2022-08-12T16:24:54.111Z,1.50
2022-08-12T16:27:25.575Z,1.25
2022-08-12T16:29:57.673Z,1.60
2022-08-12T16:32:31.497Z,1.77
2022-08-12T16:35:00.032Z,1.95
2022-08-12T16:37:32.957Z,1.30
2022-08-12T16:40:16.271Z,1.50
2022-08-12T16:42:53.671Z,2.13
2022-08-12T16:45:32.359Z,1.55
2022-08-12T16:48:33.881Z,1.60
2022-08-12T16:51:08.192Z,1.60
2022-08-12T16:53:44.024Z,1.67
2022-08-12T16:56:12.517Z,1.58
2022-08-12T16:58:40.229Z,1.83
2022-08-12T17:01:11.960Z,1.83
2022-08-12T17:03:44.768Z,1.80
2022-08-12T17:06:22.320Z,1.65
2022-08-12T17:09:02.386Z,1.70
2022-08-12T17:11:32.151Z,1.55
2022-08-12T17:13:59.574Z,1.90
2022-08-12T17:16:30.101Z,2.03
2022-08-12T17:18:59.551Z,2.08
2022-08-12T17:24:15.042Z,1.60
2022-08-12T17:26:44.940Z,1.80
2022-08-12T17:29:24.263Z,1.80
2022-08-12T17:32:09.955Z,2.17
2022-08-12T17:34:55.570Z,2.42
2022-08-12T17:37:22.450Z,2.20
2022-08-12T17:40:15.641Z,1.90
2022-08-12T17:42:38.449Z,1.67
2022-08-12T17:45:18.030Z,1.77
2022-08-12T17:48:00.851Z,1.90
2022-08-12T17:50:32.708Z,2.00
2022-08-12T17:53:03.079Z,1.75
2022-08-12T17:55:43.295Z,1.67
2022-08-12T17:58:13.697Z,1.73
2022-08-12T18:00:42.574Z,2.13
2022-08-12T18:03:09.707Z,2.20
2022-08-12T18:05:55.301Z,2.08
2022-08-12T18:08:28.829Z,2.20
2022-08-12T18:12:04.696Z,2.00
2022-08-12T18:14:05.528Z,2.15
2022-08-12T18:16:34.537Z,2.30
2022-08-12T18:19:01.995Z,2.50
2022-08-12T18:21:30.562Z,2.20
2022-08-12T18:24:21.979Z,2.15
2022-08-12T18:26:49.151Z,2.50
2022-08-12T18:29:16.395Z,2.38
2022-08-12T18:31:44.650Z,1.90
2022-08-12T18:34:27.758Z,1.95
2022-08-12T18:36:55.564Z,1.83
2022-08-12T18:39:22.666Z,1.95
2022-08-12T18:41:49.511Z,2.20
2022-08-12T18:44:19.360Z,1.88
2022-08-12T18:46:55.274Z,1.90
2022-08-12T18:49:33.288Z,2.40
2022-08-12T18:52:08.681Z,1.88
2022-08-12T18:54:49.120Z,2.15
2022-08-12T18:57:45.970Z,2.40
2022-08-12T19:00:18.696Z,2.60
2022-08-12T19:02:50.628Z,1.90
2022-08-12T19:05:17.851Z,2.20
2022-08-12T19:07:49.718Z,2.20
2022-08-12T19:10:28.286Z,2.38
2022-08-12T19:13:21.180Z,2.10
2022-08-12T19:15:57.851Z,2.28
2022-08-12T19:18:30.159Z,2.25
2022-08-12T19:21:00.462Z,1.92
2022-08-12T19:23:38.416Z,2.10
2022-08-12T19:26:10.596Z,1.88
2022-08-12T19:28:41.371Z,2.20
2022-08-12T19:31:45.410Z,2.20
2022-08-12T19:36:07.040Z,1.83
2022-08-12T19:38:04.173Z,2.15
2022-08-12T19:40:31.972Z,1.70
2022-08-12T19:43:19.779Z,2.58
2022-08-12T19:45:54.382Z,2.10
2022-08-12T19:48:24.671Z,2.00
2022-08-12T19:50:55.652Z,2.72
2022-08-12T19:53:24.183Z,1.77
2022-08-12T19:55:53.005Z,2.00
2022-08-12T19:58:20.348Z,2.15
2022-08-12T20:00:53.054Z,2.70
2022-08-12T20:03:39.561Z,2.08
2022-08-12T20:06:23.549Z,2.10
2022-08-12T20:08:56.367Z,2.13
2022-08-12T20:12:10.017Z,2.15
2022-08-12T20:14:19.032Z,2.13
2022-08-12T20:16:51.998Z,4.28
2022-08-12T20:19:21.017Z,2.47
2022-08-12T20:21:50.575Z,2.45
2022-08-12T20:24:19.125Z,2.33
2022-08-12T20:26:46.499Z,2.47
2022-08-12T20:29:13.541Z,2.30
2022-08-12T20:31:40.691Z,2.05
2022-08-12T20:34:08.560Z,1.95
2022-08-12T20:36:42.909Z,2.22
2022-08-12T20:39:37.170Z,2.15
2022-08-12T20:42:07.467Z,2.00
2022-08-12T20:44:37.749Z,2.03
2022-08-12T20:47:17.760Z,2.00
2022-08-12T20:49:46.571Z,1.88
2022-08-12T20:52:25.385Z,2.30
2022-08-12T20:54:57.153Z,2.08
2022-08-12T20:57:24.011Z,2.42
2022-08-12T20:59:52.561Z,2.30
2022-08-12T21:02:24.329Z,2.50
2022-08-12T21:05:19.751Z,2.50
2022-08-12T21:07:52.189Z,2.50
2022-08-12T21:10:20.554Z,4.72
2022-08-12T21:12:48.072Z,3.17
2022-08-12T21:15:24.396Z,2.63
2022-08-12T21:18:09.647Z,2.45
2022-08-12T21:20:52.517Z,2.25
2022-08-12T21:23:21.361Z,2.60
2022-08-12T21:25:49.200Z,2.47
2022-08-12T21:28:20.444Z,2.30
2022-08-12T21:31:11.040Z,2.25
2022-08-12T21:34:07.886Z,2.60
2022-08-12T21:36:34.123Z,2.40
2022-08-12T21:39:18.624Z,2.67
2022-08-12T21:41:50.132Z,2.50
2022-08-12T21:45:43.636Z,2.60
2022-08-12T21:47:20.087Z,2.20
2022-08-12T21:50:03.877Z,2.30
2022-08-12T21:52:36.753Z,2.38
2022-08-12T21:55:08.275Z,2.70
2022-08-12T21:57:50.694Z,3.60
2022-08-12T22:00:21.744Z,2.97
2022-08-12T22:03:07.920Z,2.75
2022-08-12T22:05:53.532Z,2.40
2022-08-12T22:08:22.496Z,2.40
2022-08-12T22:10:56.292Z,2.88
2022-08-12T22:14:07.167Z,3.10
2022-08-12T22:16:12.302Z,2.70
2022-08-12T22:18:40.227Z,2.45
2022-08-12T22:21:08.919Z,2.60
2022-08-12T22:23:51.499Z,2.70
2022-08-12T22:26:29.455Z,2.72
2022-08-12T22:29:23.358Z,3.25
2022-08-12T22:31:50.372Z,2.50
2022-08-12T22:34:18.214Z,2.42
2022-08-12T22:36:47.220Z,2.33
2022-08-12T22:39:16.865Z,2.17
2022-08-12T22:42:02.586Z,2.40
2022-08-12T22:44:54.059Z,2.08
2022-08-12T22:47:53.545Z,2.17
2022-08-12T22:50:26.993Z,2.20
2022-08-12T22:53:16.373Z,1.92
2022-08-12T22:55:59.781Z,2.15
2022-08-12T22:58:31.934Z,2.28
2022-08-12T23:01:01.857Z,2.55
2022-08-12T23:03:48.032Z,2.17
2022-08-12T23:06:23.939Z,2.30
2022-08-12T23:08:51.681Z,2.28
2022-08-12T23:11:23.668Z,2.63
2022-08-12T23:13:55.230Z,2.47
2022-08-12T23:16:31.181Z,2.30
2022-08-12T23:19:10.691Z,2.72
2022-08-12T23:22:04.465Z,2.33
2022-08-12T23:24:55.654Z,2.50
2022-08-12T23:27:51.703Z,2.33
2022-08-12T23:30:31.088Z,2.30
2022-08-12T23:33:00.629Z,2.65
2022-08-12T23:35:45.570Z,3.00
2022-08-12T23:38:28.971Z,2.60
2022-08-12T23:40:59.751Z,2.65
2022-08-12T23:43:39.951Z,2.30
2022-08-12T23:46:11.580Z,2.20
2022-08-12T23:48:38.553Z,2.35
2022-08-12T23:51:21.616Z,2.42
2022-08-12T23:53:56.088Z,2.17
2022-08-12T23:56:25.959Z,2.08
2022-08-12T23:58:55.333Z,2.33
